Time;durP1;ratioP1;P1;durP2;ratioP2;P2;SDS_P1;SDS_P2;PMS_P1;PMS_P2;Temp;Humidity;BMP_temperature;BMP_pressure;BME280_temperature;BME280_humidity;BME280_pressure;Samples;Min_cycle;Max_cycle;Signal;HPM_P1;HPM_P2
2023/01/03 00:02:09;;;;;;;2.83;1.90;;;2.50;99.90;3.00;97601.00;;;;5034243;28;20459;-82
2023/01/03 00:04:58;;;;;;;2.77;2.27;;;2.50;99.90;2.50;97591.00;;;;5022373;28;20471;-87
2023/01/03 00:07:47;;;;;;;2.40;2.10;;;2.20;99.90;3.10;97605.00;;;;5033698;28;20431;-83
2023/01/03 00:10:36;;;;;;;6.30;3.10;;;2.30;99.90;3.30;97616.00;;;;5033941;28;20449;-83
2023/01/03 00:13:24;;;;;;;2.43;1.90;;;2.40;99.90;3.20;97620.00;;;;5026229;28;20905;-83
2023/01/03 00:16:17;;;;;;;3.23;1.97;;;2.30;99.90;3.10;97613.00;;;;5020165;28;20436;-82
2023/01/03 00:19:08;;;;;;;2.90;2.43;;;2.30;99.90;3.10;97612.00;;;;5032012;28;20459;-85
2023/01/03 00:21:57;;;;;;;2.53;1.87;;;2.30;99.90;3.30;97611.00;;;;5031445;28;20511;-83
2023/01/03 00:24:48;;;;;;;2.20;2.00;;;2.40;99.90;3.60;97595.00;;;;5033356;28;20976;-84
2023/01/03 00:27:36;;;;;;;2.17;1.60;;;2.40;99.90;3.20;97606.00;;;;5023575;28;20439;-84
2023/01/03 00:30:25;;;;;;;3.50;2.00;;;2.40;99.90;2.50;97606.00;;;;5034799;28;20460;-84
2023/01/03 00:33:14;;;;;;;3.77;2.63;;;2.40;99.90;2.70;97604.00;;;;5033246;28;20437;-84
2023/01/03 00:36:06;;;;;;;3.17;2.60;;;2.10;99.90;3.00;97609.00;;;;5029612;28;20424;-86
2023/01/03 00:38:55;;;;;;;5.93;2.80;;;2.00;99.90;3.10;97607.00;;;;5019893;28;20511;-84
2023/01/03 00:41:43;;;;;;;2.37;1.97;;;2.00;99.90;2.40;97607.00;;;;5032892;28;20471;-85
2023/01/03 00:44:32;;;;;;;4.37;1.97;;;1.90;99.90;2.20;97610.00;;;;5032353;28;20499;-84
2023/01/03 00:47:21;;;;;;;3.37;2.10;;;1.80;99.90;2.80;97618.00;;;;5032623;28;20444;-85
2023/01/03 00:50:10;;;;;;;4.13;1.93;;;3.20;99.90;2.70;97620.00;;;;5032373;28;20518;-84
2023/01/03 00:53:00;;;;;;;6.23;2.60;;;1.80;99.90;2.70;97616.00;;;;5032699;28;20448;-83
2023/01/03 00:55:49;;;;;;;6.63;1.90;;;1.80;99.90;2.70;97624.00;;;;5032178;28;21007;-83
2023/01/03 00:58:38;;;;;;;6.57;2.40;;;1.80;99.90;2.90;97626.00;;;;5027203;28;20433;-82
2023/01/03 01:01:30;;;;;;;3.50;1.80;;;1.80;99.90;2.90;97633.00;;;;5031691;28;20455;-84
2023/01/03 01:04:22;;;;;;;3.53;2.47;;;1.70;99.90;2.90;97639.00;;;;5030752;28;20479;-82
2023/01/03 01:07:10;;;;;;;3.17;1.60;;;1.80;99.90;2.90;97634.00;;;;5026724;28;20571;-85
2023/01/03 01:10:00;;;;;;;3.37;3.07;;;1.90;99.90;2.60;97640.00;;;;5026517;28;20432;-84
2023/01/03 01:12:49;;;;;;;2.47;2.27;;;1.80;99.90;2.80;97635.00;;;;5023716;28;20455;-84
2023/01/03 01:15:38;;;;;;;2.77;2.07;;;1.70;99.90;2.80;97635.00;;;;5032567;28;20431;-84
2023/01/03 01:18:27;;;;;;;4.67;2.57;;;1.70;99.90;2.60;97640.00;;;;5032650;28;20420;-82
2023/01/03 01:21:19;;;;;;;2.37;2.17;;;1.80;99.90;2.30;97642.00;;;;5033014;28;20444;-82
2023/01/03 01:24:08;;;;;;;3.03;2.10;;;1.70;99.90;2.10;97646.00;;;;5031026;28;20479;-83
2023/01/03 01:26:59;;;;;;;2.27;1.53;;;1.60;99.90;2.00;97645.00;;;;5029846;28;20432;-83
2023/01/03 01:29:48;;;;;;;2.77;2.53;;;1.40;99.90;2.00;97647.00;;;;5023716;28;20945;-83
2023/01/03 01:32:37;;;;;;;6.33;2.33;;;1.30;99.90;2.20;97659.00;;;;5031368;28;20498;-82
2023/01/03 01:35:25;;;;;;;3.03;1.93;;;1.40;99.90;2.10;97647.00;;;;5031557;28;20447;-83
2023/01/03 01:38:14;;;;;;;1.67;1.57;;;1.70;99.90;2.20;97646.00;;;;5031249;28;20437;-84
2023/01/03 01:41:03;;;;;;;1.97;1.60;;;1.20;99.90;2.20;97637.00;;;;5031869;28;20460;-84
2023/01/03 01:47:05;;;;;;;3.83;2.53;;;1.30;99.90;2.30;97639.00;;;;5032018;28;20953;-83
2023/01/03 01:50:12;;;;;;;2.10;2.00;;;1.50;99.90;2.30;97648.00;;;;5032285;28;20897;-82
2023/01/03 01:53:05;;;;;;;5.77;2.00;;;1.50;99.90;2.50;97647.00;;;;5031448;28;20428;-83
2023/01/03 01:55:59;;;;;;;2.23;2.03;;;1.50;99.90;2.60;97650.00;;;;5032106;28;20697;-83
2023/01/03 01:58:51;;;;;;;2.30;2.10;;;1.60;99.90;2.50;97643.00;;;;5032173;28;20995;-83
2023/01/03 02:01:45;;;;;;;2.93;1.97;;;1.60;99.90;2.10;97647.00;;;;5032143;28;20965;-84
2023/01/03 02:04:38;;;;;;;2.10;1.40;;;2.50;99.90;2.40;97639.00;;;;5033379;28;20471;-83
2023/01/03 02:07:27;;;;;;;5.03;2.30;;;1.50;99.90;2.20;97652.00;;;;5036839;28;20792;-83
2023/01/03 02:10:16;;;;;;;2.60;1.80;;;2.00;99.90;1.90;97653.00;;;;5034806;28;20478;-84
2023/01/03 02:13:17;;;;;;;3.07;1.57;;;2.00;99.90;1.80;97650.00;;;;5030854;28;20502;-83
2023/01/03 02:16:55;;;;;;;5.53;1.60;;;1.40;99.90;1.70;97652.00;;;;5031023;28;20960;-82
2023/01/03 02:20:21;;;;;;;2.20;2.00;;;1.40;99.90;1.70;97658.00;;;;5019365;28;20925;-82
2023/01/03 02:23:50;;;;;;;3.07;2.50;;;1.10;99.90;1.90;97657.00;;;;5031357;28;20432;-82
2023/01/03 02:26:52;;;;;;;1.37;1.17;;;1.10;99.90;1.70;97657.00;;;;5039868;28;20471;-83
2023/01/03 02:30:32;;;;;;;7.60;2.10;;;2.50;99.90;2.00;97669.00;;;;5054297;28;20436;-83
2023/01/03 02:33:29;;;;;;;1.70;1.20;;;1.10;99.90;2.10;97662.00;;;;5012922;28;20490;-85
2023/01/03 02:36:29;;;;;;;3.23;2.27;;;1.20;99.90;2.10;97667.00;;;;5036539;28;20514;-83
2023/01/03 02:39:26;;;;;;;3.50;2.03;;;1.20;99.90;2.40;97665.00;;;;5038018;28;20429;-85
2023/01/03 02:46:01;;;;;;;2.53;1.90;;;1.30;99.90;2.40;97673.00;;;;5038394;28;20464;-85
2023/01/03 02:48:56;;;;;;;1.50;1.40;;;1.30;99.90;2.30;97664.00;;;;5038281;28;20439;-85
2023/01/03 02:51:47;;;;;;;4.23;1.87;;;1.30;99.90;2.20;97663.00;;;;5038966;28;20451;-83
2023/01/03 02:54:41;;;;;;;1.93;1.50;;;1.30;99.90;1.70;97664.00;;;;5037628;28;20961;-85
2023/01/03 02:57:41;;;;;;;2.47;1.77;;;2.00;99.90;1.70;97674.00;;;;5038136;28;20428;-85
2023/01/03 03:00:32;;;;;;;3.87;1.73;;;1.10;99.90;1.50;97676.00;;;;5037454;28;20464;-85
2023/01/03 03:03:27;;;;;;;3.93;1.23;;;1.00;99.90;1.20;97669.00;;;;5036650;28;20763;-84
2023/01/03 03:06:25;;;;;;;2.37;1.80;;;1.20;99.90;1.60;97674.00;;;;5035724;28;20479;-85
2023/01/03 03:09:14;;;;;;;2.13;1.73;;;1.10;99.90;1.80;97685.00;;;;5036903;28;20431;-84
2023/01/03 03:15:14;;;;;;;1.27;1.03;;;0.90;99.90;1.20;97676.00;;;;5028625;28;20448;-84
2023/01/03 03:18:11;;;;;;;4.37;2.00;;;0.80;99.90;1.20;97683.00;;;;5025142;28;20805;-85
2023/01/03 03:30:34;;;;;;;2.30;2.03;;;1.30;99.90;1.90;97691.00;;;;5040359;28;20448;-85
2023/01/03 03:33:25;;;;;;;1.50;1.40;;;1.70;99.90;1.10;97675.00;;;;5036651;28;20800;-85
2023/01/03 03:36:23;;;;;;;1.40;1.33;;;0.90;99.90;0.60;97670.00;;;;5034252;28;20710;-85
2023/01/03 03:45:38;;;;;;;0.97;0.97;;;0.60;99.90;1.20;97679.00;;;;5033391;28;20862;-87
2023/01/03 03:49:36;;;;;;;1.73;1.37;;;2.10;99.90;1.60;97689.00;;;;5034588;28;20854;-84
2023/01/03 03:51:47;;;;;;;4.20;2.17;;;0.80;99.90;2.00;97692.00;;;;5037646;28;20565;-84
2023/01/03 03:54:39;;;;;;;3.23;2.27;;;1.70;99.90;1.50;97692.00;;;;5040817;28;20509;-84
2023/01/03 03:57:32;;;;;;;3.57;2.10;;;1.00;99.90;1.10;97681.00;;;;5038696;28;20420;-86
2023/01/03 04:00:26;;;;;;;1.67;1.57;;;0.90;99.90;1.10;97690.00;;;;5036051;28;20431;-82
2023/01/03 04:03:17;;;;;;;3.40;2.53;;;1.10;99.90;1.20;97704.00;;;;5039205;28;20413;-82
2023/01/03 04:06:10;;;;;;;1.63;1.17;;;0.90;99.90;1.20;97700.00;;;;5038284;28;20475;-85
2023/01/03 04:09:01;;;;;;;2.10;1.80;;;0.80;99.90;1.70;97704.00;;;;5039432;28;20435;-86
2023/01/03 04:11:50;;;;;;;2.20;1.97;;;0.90;99.90;1.70;97709.00;;;;5054382;28;20472;-82
2023/01/03 04:14:39;;;;;;;2.10;1.57;;;1.80;99.90;1.40;97702.00;;;;5045364;28;20441;-83
2023/01/03 04:17:27;;;;;;;3.70;2.70;;;1.00;99.90;2.00;97705.00;;;;5038400;28;20444;-86
2023/01/03 04:20:17;;;;;;;2.43;2.07;;;1.30;99.90;2.40;97703.00;;;;5040773;28;20867;-86
2023/01/03 04:23:06;;;;;;;2.33;2.17;;;1.20;99.90;2.40;97710.00;;;;5033673;28;20588;-86
2023/01/03 04:25:56;;;;;;;3.10;2.30;;;1.40;99.90;2.40;97702.00;;;;5037877;28;20456;-86
2023/01/03 04:28:45;;;;;;;1.73;1.63;;;1.40;99.90;2.40;97705.00;;;;5048556;28;20428;-86
2023/01/03 04:31:33;;;;;;;3.67;1.77;;;1.50;99.90;2.40;97712.00;;;;5040234;28;20448;-85
2023/01/03 04:34:23;;;;;;;1.27;1.17;;;1.60;99.90;1.40;97715.00;;;;5034701;28;20440;-89
2023/01/03 04:37:11;;;;;;;2.20;2.00;;;1.30;99.90;1.90;97707.00;;;;5039090;28;20839;-85
2023/01/03 04:40:00;;;;;;;2.63;2.00;;;1.60;99.90;2.30;97715.00;;;;5039873;28;20440;-86
2023/01/03 04:45:56;;;;;;;2.93;2.03;;;1.20;99.90;2.40;97720.00;;;;5039728;28;20480;-86
2023/01/03 04:48:45;;;;;;;3.23;2.13;;;1.90;99.90;2.60;97732.00;;;;5036772;28;20435;-87
2023/01/03 04:51:34;;;;;;;1.87;1.57;;;1.50;99.90;2.90;97727.00;;;;5040479;28;20474;-87
2023/01/03 04:54:23;;;;;;;3.00;2.07;;;2.00;99.90;2.90;97727.00;;;;5040229;28;20559;-86
2023/01/03 04:57:12;;;;;;;3.50;1.77;;;1.80;99.90;2.20;97717.00;;;;5038387;28;20455;-84
2023/01/03 05:00:02;;;;;;;4.00;2.20;;;1.80;99.90;2.10;97728.00;;;;5037950;28;20424;-86
2023/01/03 05:02:51;;;;;;;2.23;1.93;;;1.70;99.90;2.20;97724.00;;;;5036131;28;20866;-86
2023/01/03 05:05:40;;;;;;;7.10;2.90;;;1.70;99.90;2.20;97724.00;;;;5035279;28;20436;-85
2023/01/03 05:08:29;;;;;;;2.87;2.67;;;2.30;99.90;2.60;97725.00;;;;5028048;28;20424;-84
2023/01/03 05:11:18;;;;;;;7.30;2.67;;;1.70;99.90;2.70;97736.00;;;;5036829;28;20445;-87
2023/01/03 05:14:07;;;;;;;2.13;1.90;;;1.80;99.90;2.80;97750.00;;;;5034087;28;20506;-86
2023/01/03 05:17:01;;;;;;;4.00;1.97;;;1.90;99.90;2.90;97759.00;;;;5037165;28;20428;-85
2023/01/03 05:26:05;;;;;;;3.93;1.63;;;2.10;99.90;3.20;97756.00;;;;5025472;28;20997;-87
2023/01/03 05:28:55;;;;;;;4.63;2.60;;;2.10;99.90;3.30;97752.00;;;;5046502;28;20450;-86
2023/01/03 05:31:44;;;;;;;7.57;2.43;;;2.20;99.90;3.40;97756.00;;;;5038005;28;20506;-86
2023/01/03 05:34:34;;;;;;;4.23;2.97;;;2.40;99.90;3.20;97756.00;;;;5037336;28;20432;-86
2023/01/03 05:37:23;;;;;;;2.63;2.37;;;2.40;99.90;3.40;97765.00;;;;5026494;28;20428;-86
2023/01/03 05:40:13;;;;;;;2.60;1.97;;;2.50;99.90;3.50;97758.00;;;;5034971;28;20819;-86
2023/01/03 05:43:01;;;;;;;2.37;2.17;;;2.50;99.90;3.50;97757.00;;;;5033105;28;20912;-86
2023/01/03 05:45:52;;;;;;;4.37;2.23;;;2.60;99.90;3.80;97767.00;;;;5037789;28;20846;-86
2023/01/03 05:48:40;;;;;;;2.90;2.13;;;2.70;99.90;4.00;97767.00;;;;5024565;28;20436;-86
2023/01/03 05:51:30;;;;;;;3.60;2.03;;;2.70;99.90;3.50;97757.00;;;;5037641;28;20472;-86
2023/01/03 05:54:20;;;;;;;5.70;3.00;;;2.70;99.90;3.20;97769.00;;;;5036907;28;20436;-86
2023/01/03 05:57:09;;;;;;;4.43;3.17;;;2.60;99.90;3.00;97775.00;;;;5037249;28;20491;-85
2023/01/03 05:59:57;;;;;;;2.10;0.93;;;2.50;99.90;2.80;97766.00;;;;5036772;28;20974;-87
2023/01/03 06:02:46;;;;;;;3.10;2.33;;;2.40;99.90;2.80;97779.00;;;;5035621;28;20428;-86
2023/01/03 06:05:35;;;;;;;3.23;2.07;;;2.30;99.90;2.90;97790.00;;;;5036344;28;20447;-85
2023/01/03 06:08:25;;;;;;;0.97;0.70;;;2.20;99.90;2.60;97777.00;;;;5033256;28;20440;-87
2023/01/03 06:11:16;;;;;;;2.87;2.50;;;2.20;99.90;2.90;97776.00;;;;5035005;28;20456;-83
2023/01/03 06:14:04;;;;;;;5.00;2.83;;;2.10;99.90;3.40;97775.00;;;;5033626;28;20428;-86
2023/01/03 06:20:00;;;;;;;6.30;2.87;;;2.20;99.90;3.70;97786.00;;;;5036571;28;20452;-85
2023/01/03 06:22:48;;;;;;;4.80;2.87;;;2.40;99.90;3.80;97790.00;;;;5037143;28;20429;-85
2023/01/03 06:25:38;;;;;;;3.33;3.03;;;2.50;99.90;3.90;97791.00;;;;5034229;28;20432;-86
2023/01/03 06:28:27;;;;;;;4.30;2.90;;;2.60;99.90;3.60;97788.00;;;;5036233;28;20472;-84
2023/01/03 06:31:16;;;;;;;6.80;2.40;;;2.60;99.90;3.40;97797.00;;;;5035102;28;20505;-85
2023/01/03 06:34:05;;;;;;;4.83;2.50;;;2.60;99.90;3.60;97794.00;;;;5036628;28;20439;-84
2023/01/03 06:36:53;;;;;;;6.77;3.00;;;2.50;99.90;3.60;97789.00;;;;5036925;28;20439;-87
2023/01/03 06:39:42;;;;;;;3.40;2.43;;;2.50;99.90;3.30;97809.00;;;;5036895;28;20527;-86
2023/01/03 06:42:41;;;;;;;4.27;3.13;;;2.60;99.90;3.50;97812.00;;;;5036207;28;20519;-86
2023/01/03 06:54:49;;;;;;;3.07;2.20;;;2.60;99.90;4.00;97825.00;;;;5038425;28;20429;-87
2023/01/03 06:57:39;;;;;;;3.83;3.00;;;2.70;99.90;4.00;97823.00;;;;5029379;28;20425;-86
2023/01/03 07:00:28;;;;;;;3.70;2.97;;;2.70;99.90;3.90;97831.00;;;;5031393;28;20447;-87
2023/01/03 07:03:16;;;;;;;5.60;3.97;;;2.70;99.90;4.00;97827.00;;;;5040182;28;20435;-85
2023/01/03 07:06:06;;;;;;;6.10;4.17;;;2.70;99.90;3.80;97825.00;;;;5029177;28;21018;-84
2023/01/03 07:08:55;;;;;;;3.10;2.80;;;2.80;99.90;3.60;97821.00;;;;5035302;28;21011;-86
2023/01/03 07:11:44;;;;;;;6.07;2.77;;;2.70;99.90;3.20;97827.00;;;;5031940;28;20449;-84
2023/01/03 07:14:33;;;;;;;3.03;2.57;;;2.60;99.90;3.10;97830.00;;;;5030458;28;20448;-86
2023/01/03 07:17:22;;;;;;;3.10;2.40;;;2.50;99.90;3.20;97832.00;;;;5026388;28;20435;-84
2023/01/03 07:20:11;;;;;;;3.70;2.97;;;2.40;99.90;3.40;97838.00;;;;5027160;28;20421;-85
2023/01/03 07:22:59;;;;;;;4.03;3.17;;;2.50;99.90;3.60;97836.00;;;;5029949;28;20490;-85
2023/01/03 07:25:48;;;;;;;3.30;2.97;;;2.50;99.90;3.80;97844.00;;;;5032502;28;20914;-85
2023/01/03 07:28:37;;;;;;;19.63;9.30;;;2.60;99.90;3.60;97840.00;;;;5037847;28;20460;-87
2023/01/03 07:31:27;;;;;;;5.03;4.03;;;2.70;99.90;3.40;97836.00;;;;5026154;28;20487;-86
2023/01/03 07:34:16;;;;;;;13.20;9.63;;;3.60;99.90;3.70;97835.00;;;;5037420;28;20436;-84
2023/01/03 07:37:05;;;;;;;22.67;14.50;;;2.70;99.90;4.20;97848.00;;;;5037972;28;20498;-87
2023/01/03 07:39:53;;;;;;;19.67;12.80;;;3.00;99.90;4.30;97846.00;;;;5032797;28;20423;-87
2023/01/03 07:45:53;;;;;;;5.23;4.13;;;3.00;99.90;4.10;97848.00;;;;5028465;28;20428;-85
2023/01/03 07:48:45;;;;;;;4.27;3.07;;;3.00;99.90;4.20;97855.00;;;;5032279;28;20460;-85
2023/01/03 07:51:35;;;;;;;3.27;2.70;;;3.20;99.90;3.90;97859.00;;;;5032238;28;20452;-84
2023/01/03 07:54:23;;;;;;;7.50;2.83;;;3.00;99.90;4.00;97854.00;;;;5032720;28;20448;-86
2023/01/03 07:57:12;;;;;;;3.90;2.37;;;3.00;99.90;4.10;97865.00;;;;5034386;28;20455;-85
2023/01/03 08:00:01;;;;;;;5.77;3.23;;;3.10;99.90;4.60;97869.00;;;;5024227;28;20428;-85
2023/01/03 08:02:53;;;;;;;4.60;2.60;;;4.70;99.90;4.70;97878.00;;;;5035034;28;20447;-84
2023/01/03 08:05:43;;;;;;;3.83;3.30;;;3.30;99.90;4.80;97870.00;;;;5037171;28;20950;-85
2023/01/03 08:08:32;;;;;;;4.77;3.57;;;3.50;99.90;4.90;97877.00;;;;5038160;28;20491;-86
2023/01/03 08:14:27;;;;;;;5.90;2.83;;;4.40;99.90;5.20;97879.00;;;;5037174;28;20435;-86
2023/01/03 08:17:15;;;;;;;4.70;2.97;;;3.80;99.90;5.00;97880.00;;;;5038425;28;20487;-84
2023/01/03 08:20:06;;;;;;;4.53;2.77;;;4.40;99.90;4.90;97888.00;;;;5037789;28;20200;-85
2023/01/03 08:22:59;;;;;;;5.80;2.63;;;3.80;99.90;5.00;97883.00;;;;5038573;28;20706;-87
2023/01/03 08:25:47;;;;;;;3.07;2.40;;;3.80;99.90;5.10;97887.00;;;;5038506;28;20930;-84
2023/01/03 08:28:37;;;;;;;3.00;2.70;;;3.80;99.90;5.10;97887.00;;;;5037414;28;20491;-86
2023/01/03 08:31:31;;;;;;;3.63;3.07;;;3.90;99.90;5.20;97890.00;;;;5038638;28;20636;-85
2023/01/03 08:34:20;;;;;;;3.90;3.47;;;3.90;99.90;5.30;97893.00;;;;5027466;28;21058;-86
2023/01/03 08:37:17;;;;;;;4.57;2.90;;;4.50;99.90;5.50;97898.00;;;;5023973;28;20225;-85
2023/01/03 08:40:11;;;;;;;4.50;3.80;;;4.10;99.90;5.60;97894.00;;;;5037494;28;20209;-87
2023/01/03 08:43:00;;;;;;;5.33;2.97;;;4.10;99.90;5.40;97882.00;;;;5037844;28;20326;-85
2023/01/03 08:45:49;;;;;;;4.23;3.57;;;4.20;99.90;5.40;97893.00;;;;5037225;28;20201;-85
2023/01/03 08:48:38;;;;;;;5.13;3.13;;;4.80;99.90;5.40;97892.00;;;;5032466;28;20228;-86
2023/01/03 08:51:28;;;;;;;7.70;3.17;;;4.10;99.90;5.30;97894.00;;;;5029482;28;20271;-85
2023/01/03 08:54:17;;;;;;;7.03;3.47;;;4.10;99.90;5.30;97892.00;;;;5037403;28;20209;-85
2023/01/03 08:57:07;;;;;;;4.07;2.80;;;4.10;99.90;5.10;97901.00;;;;5037275;28;20236;-85
2023/01/03 08:59:56;;;;;;;3.77;2.77;;;5.40;99.90;5.20;97901.00;;;;5037344;28;20259;-85
2023/01/03 09:02:45;;;;;;;4.20;3.30;;;4.20;99.90;5.50;97910.00;;;;5038046;28;21024;-85
2023/01/03 09:05:33;;;;;;;4.60;3.77;;;4.20;99.90;5.90;97907.00;;;;5037192;28;20189;-86
2023/01/03 09:08:22;;;;;;;6.13;3.93;;;4.30;99.90;6.10;97913.00;;;;5037057;28;20247;-86
2023/01/03 09:11:11;;;;;;;9.57;6.27;;;4.80;99.90;6.00;97922.00;;;;5037867;28;20225;-84
2023/01/03 09:14:01;;;;;;;16.93;9.33;;;4.60;99.90;5.70;97917.00;;;;5032424;28;20210;-85
2023/01/03 09:16:50;;;;;;;12.50;8.57;;;4.80;99.90;5.80;97933.00;;;;5031133;28;20201;-86
2023/01/03 09:19:39;;;;;;;9.20;5.80;;;4.60;99.90;5.70;97929.00;;;;5035968;28;20206;-85
2023/01/03 09:22:28;;;;;;;7.43;4.70;;;4.60;99.90;5.80;97923.00;;;;5036558;28;20212;-87
2023/01/03 09:25:17;;;;;;;6.87;5.20;;;4.60;99.90;6.00;97932.00;;;;5036869;28;20205;-86
2023/01/03 09:28:06;;;;;;;5.90;4.80;;;4.60;99.90;6.20;97932.00;;;;5041432;28;20229;-87
2023/01/03 09:30:57;;;;;;;6.93;5.43;;;4.70;99.90;6.10;97931.00;;;;5036841;28;20220;-88
2023/01/03 09:33:46;;;;;;;8.43;5.77;;;4.70;99.90;6.30;97936.00;;;;5033783;28;20336;-87
2023/01/03 09:36:37;;;;;;;9.63;5.33;;;4.70;99.90;6.30;97935.00;;;;5039136;28;20618;-86
2023/01/03 09:39:25;;;;;;;11.70;5.73;;;4.80;99.90;6.30;97929.00;;;;5034675;28;20197;-86
2023/01/03 09:45:30;;;;;;;8.03;6.10;;;6.00;99.90;6.60;97924.00;;;;5037785;28;20196;-86
2023/01/03 09:48:27;;;;;;;11.20;6.70;;;5.00;99.90;6.50;97932.00;;;;5034953;28;20213;-87
2023/01/03 10:04:15;;;;;;;14.30;7.80;;;5.10;99.90;6.30;97903.00;;;;5030197;28;20197;-87
2023/01/03 10:07:18;;;;;;;10.40;6.57;;;5.20;99.90;6.50;97918.00;;;;5033649;28;20254;-86
2023/01/03 10:10:18;;;;;;;16.87;8.80;;;5.20;99.90;6.90;97916.00;;;;5028699;28;20221;-86
2023/01/03 10:13:19;;;;;;;12.17;6.60;;;5.20;99.90;6.70;97903.00;;;;5033773;28;20249;-85
2023/01/03 10:16:17;;;;;;;7.43;4.60;;;5.30;99.90;6.50;97905.00;;;;5035629;28;20193;-86
2023/01/03 10:19:43;;;;;;;10.50;4.80;;;5.30;99.90;6.60;97893.00;;;;5033427;28;20670;-87
2023/01/03 10:22:33;;;;;;;12.03;5.10;;;5.30;99.90;6.70;97891.00;;;;5035961;28;20217;-87
2023/01/03 10:25:24;;;;;;;7.13;5.17;;;5.30;99.90;6.60;97903.00;;;;5033455;28;20209;-87
2023/01/03 10:28:19;;;;;;;9.07;6.03;;;5.30;99.90;6.70;97898.00;;;;5035049;28;20267;-86
2023/01/03 10:31:26;;;;;;;10.33;5.60;;;5.30;99.90;6.90;97895.00;;;;5022831;28;20599;-86
2023/01/03 10:34:17;;;;;;;8.67;4.77;;;5.50;99.90;6.80;97890.00;;;;5033410;28;20205;-86
2023/01/03 10:37:15;;;;;;;8.30;5.10;;;5.40;99.90;6.70;97878.00;;;;5035046;28;20279;-85
2023/01/03 10:40:06;;;;;;;10.67;5.40;;;5.40;99.90;6.70;97880.00;;;;5032791;28;20220;-86
2023/01/03 10:42:56;;;;;;;11.23;5.23;;;5.40;99.90;6.70;97880.00;;;;5035274;28;20247;-85
2023/01/03 10:45:56;;;;;;;6.70;4.73;;;5.40;99.90;7.00;97873.00;;;;5035919;28;20229;-86
2023/01/03 10:48:47;;;;;;;7.93;4.30;;;4.90;99.90;7.00;97877.00;;;;5034995;28;20224;-85
2023/01/03 10:52:01;;;;;;;6.53;5.03;;;6.50;99.90;7.00;97874.00;;;;5034919;28;20231;-85
2023/01/03 10:54:53;;;;;;;11.53;5.27;;;5.60;99.90;7.10;97871.00;;;;5034355;28;20193;-85
2023/01/03 10:57:47;;;;;;;8.20;5.50;;;5.60;99.90;7.10;97874.00;;;;5032346;28;20225;-85
2023/01/03 11:00:38;;;;;;;7.83;5.27;;;5.70;99.90;7.30;97873.00;;;;5048432;28;20660;-86
2023/01/03 11:03:28;;;;;;;7.80;5.50;;;5.70;99.90;7.40;97875.00;;;;5036017;28;20231;-85
2023/01/03 11:06:16;;;;;;;9.87;4.90;;;5.70;99.90;7.40;97875.00;;;;5038842;28;20205;-85
2023/01/03 11:09:11;;;;;;;9.27;4.83;;;5.80;99.90;7.40;97864.00;;;;5039716;28;20236;-85
2023/01/03 11:12:05;;;;;;;9.27;4.80;;;5.80;99.90;7.50;97863.00;;;;5021899;28;20284;-85
2023/01/03 11:14:56;;;;;;;6.33;4.97;;;5.80;99.90;7.50;97860.00;;;;5044705;28;20215;-84
2023/01/03 11:17:57;;;;;;;13.63;10.03;;;5.90;99.90;7.60;97849.00;;;;5050505;28;20248;-86
2023/01/03 11:20:52;;;;;;;19.83;9.43;;;5.90;99.90;7.60;97843.00;;;;5040399;28;20334;-85
2023/01/03 11:24:05;;;;;;;10.27;6.90;;;5.90;99.90;7.30;97852.00;;;;5027276;28;20246;-86
2023/01/03 11:27:07;;;;;;;17.17;8.37;;;5.90;99.90;7.30;97841.00;;;;5038707;28;20212;-86
2023/01/03 11:30:14;;;;;;;13.57;7.73;;;5.90;99.90;7.50;97847.00;;;;5026052;28;20649;-87
2023/01/03 11:33:29;;;;;;;17.80;10.40;;;5.90;99.90;7.40;97838.00;;;;5037684;28;20197;-86
2023/01/03 11:36:35;;;;;;;10.03;6.33;;;5.90;99.90;7.20;97844.00;;;;5036509;28;20229;-87
2023/01/03 11:39:50;;;;;;;11.43;7.23;;;5.90;99.90;7.20;97841.00;;;;5035958;28;20208;-88
2023/01/03 11:42:56;;;;;;;11.10;6.70;;;5.90;99.90;7.20;97839.00;;;;5037498;28;20202;-87
2023/01/03 11:45:57;;;;;;;14.33;8.63;;;5.90;99.90;7.20;97835.00;;;;5038438;28;20200;-87
2023/01/03 11:49:15;;;;;;;11.57;8.10;;;5.80;99.90;7.40;97837.00;;;;5039232;28;20205;-87
2023/01/03 11:52:22;;;;;;;10.57;7.47;;;5.80;99.90;7.40;97834.00;;;;5035683;28;20210;-86
2023/01/03 11:55:42;;;;;;;16.13;6.57;;;5.80;99.90;7.10;97830.00;;;;5033490;28;20244;-87
2023/01/03 11:59:17;;;;;;;11.70;6.40;;;5.80;99.90;7.00;97819.00;;;;5033950;28;20227;-86
2023/01/03 12:02:49;;;;;;;15.53;7.83;;;5.70;99.90;7.10;97831.00;;;;5033384;28;20271;-86
2023/01/03 12:05:46;;;;;;;6.53;5.50;;;5.70;99.90;7.00;97831.00;;;;5013845;28;20588;-87
2023/01/03 12:09:06;;;;;;;8.63;5.33;;;5.70;99.90;6.80;97832.00;;;;5038294;28;20208;-88
2023/01/03 12:12:22;;;;;;;5.93;5.13;;;5.70;99.90;7.00;97840.00;;;;5037297;28;20221;-85
2023/01/03 12:15:22;;;;;;;7.03;5.07;;;5.60;99.90;7.30;97834.00;;;;5038767;28;20258;-87
2023/01/03 12:18:21;;;;;;;9.70;6.87;;;5.70;99.90;7.30;97839.00;;;;5037409;28;20202;-87
2023/01/03 12:21:16;;;;;;;14.67;7.53;;;5.70;99.90;7.40;97839.00;;;;5035487;28;20239;-87
2023/01/03 12:24:13;;;;;;;12.43;7.87;;;5.70;99.90;7.40;97853.00;;;;5034448;28;20587;-87
2023/01/03 12:27:11;;;;;;;12.13;8.07;;;5.80;99.90;7.40;97841.00;;;;5031680;28;20282;-86
2023/01/03 12:30:07;;;;;;;10.27;7.00;;;5.80;99.90;7.30;97842.00;;;;5037019;28;20225;-86
2023/01/03 12:33:08;;;;;;;8.97;6.97;;;5.80;99.90;7.40;97847.00;;;;5026563;28;20275;-87
2023/01/03 12:36:02;;;;;;;10.53;6.47;;;5.80;99.90;7.40;97844.00;;;;5034712;28;20200;-86
2023/01/03 12:39:07;;;;;;;8.83;5.37;;;5.80;99.90;7.40;97844.00;;;;5033123;28;20197;-85
2023/01/03 12:42:01;;;;;;;9.33;5.47;;;5.80;99.90;7.50;97848.00;;;;5032730;28;20280;-86
2023/01/03 12:45:02;;;;;;;10.57;6.20;;;5.80;99.90;7.40;97835.00;;;;5033790;28;20380;-87
2023/01/03 12:47:58;;;;;;;6.37;5.17;;;5.70;99.90;7.30;97839.00;;;;5037231;28;20282;-86
2023/01/03 12:50:50;;;;;;;11.27;6.23;;;5.80;99.90;7.40;97854.00;;;;5041651;28;20863;-86
2023/01/03 12:53:45;;;;;;;10.07;6.93;;;5.90;99.90;7.30;97857.00;;;;5046758;28;20212;-87
2023/01/03 12:57:17;;;;;;;9.73;6.10;;;5.80;99.90;7.50;97849.00;;;;5032121;28;20205;-85
2023/01/03 13:00:46;;;;;;;9.53;6.07;;;5.90;99.90;7.50;97842.00;;;;5016446;28;20204;-86
2023/01/03 13:03:42;;;;;;;16.10;5.90;;;5.90;99.90;7.30;97839.00;;;;5035436;28;20204;-87
2023/01/03 13:06:34;;;;;;;9.63;6.53;;;5.90;99.90;7.20;97835.00;;;;5034252;28;20682;-87
2023/01/03 13:09:30;;;;;;;8.83;6.17;;;5.90;99.90;7.20;97836.00;;;;5032129;28;20225;-86
2023/01/03 13:12:23;;;;;;;14.77;10.47;;;5.90;99.90;7.10;97832.00;;;;5030539;28;20739;-86
2023/01/03 13:15:26;;;;;;;12.33;6.10;;;5.80;99.90;7.20;97834.00;;;;5030494;28;20209;-86
2023/01/03 13:18:39;;;;;;;11.60;7.30;;;5.90;99.90;7.00;97830.00;;;;5034971;28;20243;-86
2023/01/03 13:22:02;;;;;;;15.10;7.33;;;5.80;99.90;7.00;97821.00;;;;5026784;28;20313;-87
2023/01/03 13:24:54;;;;;;;12.27;8.07;;;5.90;99.90;6.70;97835.00;;;;5032565;28;20197;-86
2023/01/03 13:27:50;;;;;;;20.47;14.13;;;5.70;99.90;7.00;97830.00;;;;5035865;28;20251;-86
2023/01/03 13:30:39;;;;;;;19.17;13.03;;;5.70;99.90;7.40;97833.00;;;;5028357;28;20225;-87
2023/01/03 13:33:27;;;;;;;15.67;11.70;;;5.80;99.90;7.60;97835.00;;;;5036711;28;20684;-86
2023/01/03 13:36:18;;;;;;;11.20;7.83;;;5.80;99.90;7.60;97830.00;;;;5037019;28;20738;-86
2023/01/03 13:39:38;;;;;;;18.60;10.70;;;6.00;99.90;7.40;97835.00;;;;5031860;28;20201;-87
2023/01/03 13:42:31;;;;;;;7.63;5.50;;;5.90;99.90;7.20;97831.00;;;;5031051;28;20278;-86
2023/01/03 13:45:58;;;;;;;12.60;6.23;;;5.90;99.90;7.10;97828.00;;;;5026190;28;20240;-86
2023/01/03 13:48:56;;;;;;;6.63;5.50;;;5.90;99.90;7.20;97834.00;;;;5030845;28;20219;-87
2023/01/03 13:51:50;;;;;;;13.77;7.93;;;5.90;99.90;7.50;97835.00;;;;5032477;28;20244;-85
2023/01/03 13:54:58;;;;;;;10.17;7.93;;;5.90;99.90;7.70;97845.00;;;;5031288;28;20202;-85
2023/01/03 13:57:53;;;;;;;12.40;7.90;;;6.00;99.90;7.70;97843.00;;;;5032025;28;20837;-86
2023/01/03 14:00:43;;;;;;;13.10;6.30;;;6.00;99.90;7.70;97847.00;;;;5033681;28;20229;-86
2023/01/03 14:04:09;;;;;;;8.97;7.37;;;6.10;99.90;7.80;97856.00;;;;5032480;28;20205;-86
2023/01/03 14:07:47;;;;;;;11.97;6.97;;;6.10;99.90;7.80;97859.00;;;;5031786;28;20587;-87
2023/01/03 14:11:13;;;;;;;11.73;6.73;;;6.10;99.90;7.90;97860.00;;;;5034470;28;20284;-87
2023/01/03 14:14:07;;;;;;;9.37;5.90;;;6.20;99.90;7.80;97866.00;;;;5035401;28;20620;-87
2023/01/03 14:16:58;;;;;;;9.43;6.60;;;6.20;99.90;7.80;97860.00;;;;5039456;28;20197;-86
2023/01/03 14:19:51;;;;;;;10.50;5.33;;;6.20;99.90;7.80;97860.00;;;;5060632;22;20236;-63
2023/01/03 14:22:47;;;;;;;8.30;5.80;;;6.20;99.90;7.80;97859.00;;;;5025514;28;20221;-64